Ginys del Meteocat
Campanya meteocatpedra

Dades de l'estació automàtica Riudecanyes

?
?
Resum diari 21:00 TU
Dades diàries de l'estació meteorològica
Temperatura mitjana 19.8 °C
Temperatura màxima 26.0 °C 12:26 TU
Temperatura mínima 14.5 °C 0:58 TU
Humitat relativa mitjana 59%
Precipitació acumulada 0.0 mm
Ratxa màxima del vent (10 m) 35.6 km/h - 245º 11:43 TU
Irradiació solar global 12.0 MJ/m2

El tram horari està expressat en Temps Universal (TU). Cal sumar una hora en horari d'hivern i dues en horari d'estiu per passar a l'hora oficial.

Riudecanyes

Metadades estació meteorol´gica
Municipi Riudecanyes
Comarca Baix Camp
Altitud 170 m
Data alta 06.02.2019
Estat actual Operativa
Dades de període
Període
TU
TM
°C
TX
°C
TN
°C
HRM
%
PPT
mm
VVM (10 m)
km/h
DVM (10 m)
graus
VVX (10 m)
km/h
RS
W/m2
00:00 - 00:30 15.9 16.7 14.9 60 0.0 9.7 333 16.6 0
00:30 - 01:00 14.9 15.4 14.5 64 0.0 10.1 333 15.1 0
01:00 - 01:30 15.3 15.5 14.7 63 0.0 10.8 334 16.2 0
01:30 - 02:00 15.4 17.4 14.6 64 0.0 10.8 326 18.4 0
02:00 - 02:30 18.2 18.7 17.8 59 0.0 11.5 329 21.2 0
02:30 - 03:00 18.0 18.6 17.7 58 0.0 7.2 334 12.6 0
03:00 - 03:30 17.8 18.3 17.7 58 0.0 3.2 342 10.8 0
03:30 - 04:00 18.1 18.3 17.6 58 0.0 2.9 337 15.1 0
04:00 - 04:30 18.3 18.6 17.9 57 0.0 4.0 354 14.4 0
04:30 - 05:00 18.6 18.8 18.6 56 0.0 5.8 291 15.5 0
05:00 - 05:30 18.2 18.6 17.9 58 0.0 2.5 53 6.1 0
05:30 - 06:00 17.8 18.2 17.5 59 0.0 2.9 26 6.1 0
06:00 - 06:30 17.8 18.3 17.3 60 0.0 4.0 301 8.6 6
06:30 - 07:00 17.3 17.7 17.1 64 0.0 7.9 339 14.4 30
07:00 - 07:30 18.8 19.8 17.8 59 0.0 9.0 328 20.2 50
07:30 - 08:00 19.9 20.4 19.2 56 0.0 4.7 327 11.5 96
08:00 - 08:30 20.0 20.3 19.2 57 0.0 2.9 180 6.5 248
08:30 - 09:00 20.5 21.1 20.2 56 0.0 2.5 175 5.8 263
09:00 - 09:30 21.3 21.7 21.0 53 0.0 4.3 184 7.9 307
09:30 - 10:00 22.1 22.5 21.6 51 0.0 6.5 177 13.3 380
10:00 - 10:30 21.3 21.9 20.9 59 0.0 6.8 167 13.7 336
10:30 - 11:00 22.7 24.0 21.9 56 0.0 6.8 162 14.0 618
11:00 - 11:30 24.2 25.2 23.7 53 0.0 9.7 186 24.5 664
11:30 - 12:00 25.0 25.5 24.2 48 0.0 14.4 229 35.6 431
12:00 - 12:30 25.2 26.0 24.4 46 0.0 10.8 232 21.6 486
12:30 - 13:00 24.6 25.6 24.0 46 0.0 11.9 168 22.7 610
13:00 - 13:30 24.1 24.8 23.8 51 0.0 9.7 152 19.8 538
13:30 - 14:00 23.8 24.2 23.4 49 0.0 11.9 172 19.4 468
14:00 - 14:30 23.5 23.9 23.2 50 0.0 13.0 176 19.4 379
14:30 - 15:00 23.4 23.7 22.9 51 0.0 12.6 180 20.2 310
15:00 - 15:30 22.8 22.9 22.6 50 0.0 9.0 168 15.5 197
15:30 - 16:00 22.6 23.3 22.2 54 0.0 6.5 150 12.6 147
16:00 - 16:30 22.1 22.5 21.7 61 0.0 5.8 111 10.1 102
16:30 - 17:00 21.4 21.7 20.8 64 0.0 2.5 77 5.8 28
17:00 - 17:30 20.2 20.7 19.8 68 0.0 3.2 5 6.8 0
17:30 - 18:00 19.8 19.8 19.7 68 0.0 5.4 325 10.4 0
18:00 - 18:30 19.2 19.7 18.7 69 0.0 9.0 331 15.1 0
18:30 - 19:00 18.5 18.8 18.2 70 0.0 11.9 334 18.0 0
19:00 - 19:30 18.0 18.2 17.8 71 0.0 10.4 331 18.0 0
19:30 - 20:00 17.4 17.8 16.9 72 0.0 5.0 329 12.6 0
20:00 - 20:30 17.3 17.7 16.8 72 0.0 6.8 324 11.5 0
20:30 - 21:00 16.8 17.6 16.4 73 0.0 6.5 337 14.4 0
21:00 - 21:30 17.4 17.6 17.1 71 0.0 6.5 325 11.2 0
21:30 - 22:00 17.3 17.5 17.0 71 0.0 8.6 330 12.6 0

Les dades en taronja només han passat un control de qualitat automàtic. Resta pendent la seva validació definitiva.